Terminal Aerodrome Forecast
Issued by NWS

Home | Current Version | Previous Version | Text Only | Print | Product List | Glossary On
Versions: 1 2 3 4 5 6 7 8 9 10 11 12 13 14
000
FTUS44 KJAN 030852 AAA
TAFGTR
TAF AMD
KGTR 030852Z 0309/0406 00000KT 6SM BR BKN040
     FM031000 00000KT 3SM BR OVC040
     FM031330 35005KT P6SM SCT070 SCT200=

USA.gov is the U.S. government's official web portal to all federal, state and local government web resources and services.